Airport View

Enter AWOS ICAO identifier for current METAR.

ex. KFNL

KGWO 031619Z AUTO VRB05KT 10SM FEW020 29/24 A2999 RMK AO2 T02940239

3 Jul 2020 16:31

Frequency: 119.975

Phone: 662-453-3304

Other Area AWOS: K5A6 - KRNV - KGLH - KCKM

KGWO 031159Z 0312/0412 24003KT P6SM SKC